Time;durP1;ratioP1;P1;durP2;ratioP2;P2;SDS_P1;SDS_P2;PMS_P1;PMS_P2;Temp;Humidity;BMP_temperature;BMP_pressure;BME280_temperature;BME280_humidity;BME280_pressure;Samples;Min_cycle;Max_cycle;Signal;HPM_P1;HPM_P2
2021/03/28 00:01:41;;;;;;;7.37;2.23;;;5.00;99.90;;;;;;5072880;28;20445;-82
2021/03/28 00:04:10;;;;;;;6.50;2.20;;;4.90;99.90;;;;;;5070479;28;20441;-86
2021/03/28 00:06:53;;;;;;;4.77;2.07;;;4.80;99.90;;;;;;5073278;28;20495;-84
2021/03/28 00:09:23;;;;;;;7.03;2.77;;;4.80;99.90;;;;;;5073650;28;20972;-85
2021/03/28 00:11:55;;;;;;;6.70;2.13;;;4.80;99.90;;;;;;5076652;28;20493;-82
2021/03/28 00:14:41;;;;;;;6.23;2.70;;;4.70;99.90;;;;;;5072985;28;20951;-84
2021/03/28 00:17:23;;;;;;;5.70;2.57;;;4.80;99.90;;;;;;5076632;28;20438;-84
2021/03/28 00:19:52;;;;;;;6.90;2.80;;;4.70;99.90;;;;;;5076765;28;20452;-87
2021/03/28 00:22:23;;;;;;;8.80;3.30;;;4.60;99.90;;;;;;5076437;28;20441;-83
2021/03/28 00:24:59;;;;;;;7.50;3.03;;;4.50;99.90;;;;;;5076052;28;20446;-82
2021/03/28 00:27:29;;;;;;;4.90;2.50;;;4.50;99.90;;;;;;5075819;28;20445;-82
2021/03/28 00:30:01;;;;;;;6.13;2.80;;;4.60;99.90;;;;;;5070399;28;20445;-82
2021/03/28 00:32:41;;;;;;;6.83;3.47;;;4.80;99.90;;;;;;5075438;28;20516;-82
2021/03/28 00:35:10;;;;;;;9.80;4.13;;;4.80;99.90;;;;;;5075788;28;20932;-84
2021/03/28 00:37:40;;;;;;;9.60;3.27;;;5.00;99.90;;;;;;5075949;28;20445;-84
2021/03/28 00:40:19;;;;;;;9.50;2.93;;;4.90;99.90;;;;;;5076080;28;20445;-82
2021/03/28 00:42:48;;;;;;;5.50;2.50;;;4.90;99.90;;;;;;5074902;28;20506;-83
2021/03/28 00:45:23;;;;;;;3.30;2.30;;;4.90;99.90;;;;;;5075849;28;20947;-83
2021/03/28 00:48:05;;;;;;;5.83;2.57;;;5.00;99.90;;;;;;5070619;28;20475;-84
2021/03/28 00:50:36;;;;;;;5.80;3.20;;;4.90;99.90;;;;;;5076017;28;20498;-83
2021/03/28 00:53:06;;;;;;;5.47;2.67;;;4.80;99.90;;;;;;5075788;28;20602;-88
2021/03/28 00:55:36;;;;;;;3.67;1.83;;;4.90;99.90;;;;;;5075881;28;20751;-83
2021/03/28 00:58:11;;;;;;;5.33;2.60;;;5.00;99.90;;;;;;5071910;28;20878;-88
2021/03/28 01:01:12;;;;;;;4.40;2.77;;;5.00;99.90;;;;;;5075583;28;20480;-84
2021/03/28 01:03:56;;;;;;;8.97;2.97;;;5.10;99.90;;;;;;5075990;28;20442;-84
2021/03/28 01:06:31;;;;;;;5.20;3.40;;;5.00;99.90;;;;;;5075935;28;20438;-83
2021/03/28 01:09:06;;;;;;;7.80;4.40;;;4.90;99.90;;;;;;5075505;28;20445;-84
2021/03/28 01:11:54;;;;;;;5.03;2.80;;;4.90;99.90;;;;;;5075255;28;20500;-85
2021/03/28 01:14:35;;;;;;;3.93;2.70;;;5.00;99.90;;;;;;5074447;28;20450;-84
2021/03/28 01:17:25;;;;;;;9.60;2.80;;;5.00;99.90;;;;;;5071745;28;20441;-93
2021/03/28 01:20:21;;;;;;;2.83;2.23;;;5.00;99.90;;;;;;5075479;28;20445;-83
2021/03/28 01:22:55;;;;;;;7.00;2.00;;;5.00;99.90;;;;;;5072380;28;20454;-85
2021/03/28 01:25:46;;;;;;;7.43;2.60;;;5.00;99.90;;;;;;5075890;28;20445;-93
2021/03/28 01:28:20;;;;;;;7.90;2.17;;;5.00;99.90;;;;;;5073037;28;20808;-88
2021/03/28 01:30:49;;;;;;;5.67;2.63;;;5.00;99.90;;;;;;5075304;28;20441;-91
2021/03/28 01:33:22;;;;;;;8.50;2.57;;;5.00;99.90;;;;;;5075253;28;20566;-85
2021/03/28 01:35:56;;;;;;;7.60;2.93;;;5.00;99.90;;;;;;5072725;28;21058;-85
2021/03/28 01:38:26;;;;;;;15.50;3.70;;;5.00;99.90;;;;;;5075336;28;20437;-90
2021/03/28 01:40:58;;;;;;;6.40;2.17;;;5.00;99.90;;;;;;5075686;28;20441;-83
2021/03/28 01:43:34;;;;;;;4.93;2.20;;;4.90;99.90;;;;;;5071097;28;20488;-83
2021/03/28 01:46:08;;;;;;;4.40;1.60;;;4.80;99.90;;;;;;5075143;28;20456;-88
2021/03/28 01:48:44;;;;;;;8.90;2.17;;;4.90;99.90;;;;;;5069958;28;20441;-85
2021/03/28 01:51:46;;;;;;;4.63;1.37;;;4.80;99.90;;;;;;5074994;28;20445;-83
2021/03/28 01:54:20;;;;;;;3.40;1.50;;;4.80;99.90;;;;;;5074935;28;20433;-88
2021/03/28 01:56:54;;;;;;;7.00;1.67;;;4.90;99.90;;;;;;5074968;28;20437;-89
2021/03/28 01:59:33;;;;;;;4.17;2.40;;;4.80;99.90;;;;;;5074115;28;20484;-91
2021/03/28 02:02:09;;;;;;;5.47;2.60;;;4.70;99.90;;;;;;5075130;28;20441;-83
2021/03/28 02:04:52;;;;;;;15.73;4.33;;;4.70;99.90;;;;;;5074782;28;20437;-83
2021/03/28 02:07:29;;;;;;;8.30;2.70;;;4.60;99.90;;;;;;5075100;28;20768;-83
2021/03/28 02:10:09;;;;;;;5.10;2.53;;;4.30;99.90;;;;;;5071801;28;20441;-87
2021/03/28 02:12:42;;;;;;;3.77;2.07;;;4.30;99.90;;;;;;5073563;28;20488;-83
2021/03/28 02:15:32;;;;;;;5.27;2.00;;;4.30;99.90;;;;;;5074394;28;20456;-84
2021/03/28 02:18:13;;;;;;;7.73;2.87;;;4.40;99.90;;;;;;5074680;28;20456;-83
2021/03/28 02:20:48;;;;;;;5.20;1.43;;;4.40;99.90;;;;;;5073031;28;20498;-84
2021/03/28 02:23:25;;;;;;;6.00;2.10;;;4.40;99.90;;;;;;5074126;28;20441;-82
2021/03/28 02:25:57;;;;;;;3.60;1.70;;;4.30;99.90;;;;;;5074754;28;20449;-87
2021/03/28 02:28:32;;;;;;;3.67;1.53;;;4.20;99.90;;;;;;5073359;28;20426;-83
2021/03/28 02:31:06;;;;;;;6.10;1.73;;;4.20;99.90;;;;;;5074024;28;20864;-84
2021/03/28 02:33:45;;;;;;;2.00;1.57;;;4.20;99.90;;;;;;5073008;28;20449;-90
2021/03/28 02:36:21;;;;;;;2.20;1.30;;;4.20;99.90;;;;;;5074119;28;20447;-85
2021/03/28 02:39:16;;;;;;;5.57;1.43;;;4.20;99.90;;;;;;5069798;28;20441;-84
2021/03/28 02:41:49;;;;;;;4.10;2.20;;;4.30;99.90;;;;;;5073833;28;20453;-93
2021/03/28 02:44:26;;;;;;;4.60;1.77;;;4.30;99.90;;;;;;5072780;28;20449;-83
2021/03/28 02:47:01;;;;;;;3.80;1.83;;;4.30;99.90;;;;;;5073657;28;20445;-93
2021/03/28 02:49:53;;;;;;;4.73;1.70;;;4.50;99.90;;;;;;5073560;28;20510;-83
2021/03/28 02:52:35;;;;;;;4.20;1.50;;;4.50;99.90;;;;;;5056414;28;20534;-86
2021/03/28 02:55:19;;;;;;;5.50;1.90;;;4.50;99.90;;;;;;5073813;28;20453;-83
2021/03/28 02:58:00;;;;;;;3.73;1.03;;;4.60;99.90;;;;;;5072807;28;20453;-86
2021/03/28 03:00:35;;;;;;;3.77;1.60;;;4.70;99.90;;;;;;5073528;28;20480;-84
2021/03/28 03:03:26;;;;;;;2.70;1.50;;;4.80;99.90;;;;;;5073729;28;20459;-83
2021/03/28 03:06:11;;;;;;;2.27;1.37;;;4.90;99.90;;;;;;5059994;28;20450;-85
2021/03/28 03:08:41;;;;;;;7.70;2.10;;;5.00;99.90;;;;;;5069414;28;20449;-93
2021/03/28 03:11:23;;;;;;;7.23;1.63;;;5.10;99.90;;;;;;5073369;28;20469;-87
2021/03/28 03:14:10;;;;;;;3.13;1.50;;;5.20;99.90;;;;;;5072345;28;20445;-83
2021/03/28 03:17:14;;;;;;;2.53;1.20;;;5.30;99.90;;;;;;5073179;28;20966;-84
2021/03/28 03:20:17;;;;;;;5.43;1.40;;;5.20;99.90;;;;;;5073328;28;20438;-90
2021/03/28 03:23:33;;;;;;;2.10;1.40;;;5.10;99.90;;;;;;5047455;28;20448;-83
2021/03/28 03:26:28;;;;;;;4.30;1.53;;;5.10;99.90;;;;;;5038578;28;20454;-89
2021/03/28 03:29:28;;;;;;;1.83;1.43;;;5.00;99.90;;;;;;5065830;28;20449;-88
2021/03/28 03:32:10;;;;;;;4.10;1.67;;;5.00;99.90;;;;;;5073397;28;20546;-82
2021/03/28 03:35:02;;;;;;;3.63;1.80;;;5.00;99.90;;;;;;5072211;28;20441;-88
2021/03/28 03:37:54;;;;;;;3.60;1.70;;;5.00;99.90;;;;;;5068886;28;20449;-83
2021/03/28 03:40:51;;;;;;;3.53;1.40;;;5.00;99.90;;;;;;5072905;28;20449;-83
2021/03/28 03:43:39;;;;;;;6.10;2.00;;;5.00;99.90;;;;;;5068448;28;20449;-83
2021/03/28 03:46:08;;;;;;;4.07;1.73;;;4.90;99.90;;;;;;5073445;28;20441;-90
2021/03/28 03:49:13;;;;;;;4.07;1.63;;;4.80;99.90;;;;;;5073283;28;20514;-90
2021/03/28 03:52:15;;;;;;;4.90;1.60;;;4.70;99.90;;;;;;5001652;28;20987;-83
2021/03/28 03:54:55;;;;;;;4.30;1.40;;;4.60;99.90;;;;;;5039188;28;20455;-83
2021/03/28 03:57:40;;;;;;;4.57;1.80;;;4.50;99.90;;;;;;5073176;28;20451;-82
2021/03/28 04:00:16;;;;;;;3.50;1.47;;;4.50;99.90;;;;;;5073137;28;20485;-90
2021/03/28 04:02:52;;;;;;;2.33;1.40;;;4.50;99.90;;;;;;5068909;28;20974;-90
2021/03/28 04:05:33;;;;;;;3.60;2.00;;;4.40;99.90;;;;;;5072753;28;20441;-83
2021/03/28 04:08:33;;;;;;;5.30;1.63;;;4.40;99.90;;;;;;5072917;28;20481;-87
2021/03/28 04:11:08;;;;;;;5.07;1.90;;;4.30;99.90;;;;;;5038932;28;20473;-84
2021/03/28 04:13:55;;;;;;;3.40;1.43;;;4.10;99.90;;;;;;5068431;28;20479;-88
2021/03/28 04:16:49;;;;;;;3.53;1.40;;;4.10;99.90;;;;;;5072646;28;20453;-83
2021/03/28 04:19:31;;;;;;;5.40;1.90;;;4.00;99.90;;;;;;5073003;28;20449;-93
2021/03/28 04:22:28;;;;;;;3.83;1.50;;;4.00;99.90;;;;;;5072890;28;20494;-86
2021/03/28 04:25:05;;;;;;;6.70;1.70;;;4.10;99.90;;;;;;5073448;28;20454;-91
2021/03/28 04:27:57;;;;;;;3.90;1.63;;;4.20;99.90;;;;;;5073042;28;20813;-82
2021/03/28 04:30:39;;;;;;;3.93;1.63;;;4.30;99.90;;;;;;5072956;28;20506;-83
2021/03/28 04:33:17;;;;;;;3.40;1.27;;;4.30;99.90;;;;;;5072807;28;20489;-88
2021/03/28 04:35:59;;;;;;;3.67;1.70;;;4.40;99.90;;;;;;5072691;28;20543;-83
2021/03/28 04:38:38;;;;;;;7.90;1.77;;;4.50;99.90;;;;;;5073068;28;20449;-95
2021/03/28 04:41:32;;;;;;;5.83;2.07;;;4.50;99.90;;;;;;5072709;28;20441;-90
2021/03/28 04:44:38;;;;;;;4.37;1.80;;;4.50;99.90;;;;;;5034805;28;20441;-90
2021/03/28 04:47:44;;;;;;;3.97;1.63;;;4.50;99.90;;;;;;5072387;28;20892;-90
2021/03/28 04:50:37;;;;;;;3.90;1.70;;;4.40;99.90;;;;;;5072418;28;20445;-89
2021/03/28 04:53:28;;;;;;;4.17;1.43;;;4.50;99.90;;;;;;5072277;28;20496;-89
2021/03/28 04:56:34;;;;;;;6.13;1.40;;;4.40;99.90;;;;;;5073612;28;20804;-87
2021/03/28 04:59:38;;;;;;;5.70;1.80;;;4.30;99.90;;;;;;5051782;28;20468;-83
2021/03/28 05:02:24;;;;;;;4.07;1.27;;;4.20;99.90;;;;;;5035355;28;20464;-93
2021/03/28 05:05:33;;;;;;;7.20;2.30;;;4.10;99.90;;;;;;5073824;28;20445;-93
2021/03/28 05:08:42;;;;;;;4.03;1.60;;;4.00;99.90;;;;;;5037327;28;20445;-83
2021/03/28 05:11:41;;;;;;;6.67;1.80;;;3.80;99.90;;;;;;5050104;28;20452;-90
2021/03/28 05:14:59;;;;;;;4.80;1.80;;;3.60;99.90;;;;;;5069471;28;20475;-86
2021/03/28 05:18:13;;;;;;;5.20;2.03;;;3.40;99.90;;;;;;5075623;28;20480;-85
2021/03/28 05:21:11;;;;;;;4.73;2.27;;;3.40;99.90;;;;;;5075621;28;20452;-92
2021/03/28 05:24:16;;;;;;;4.60;1.63;;;3.40;99.90;;;;;;5041503;28;20507;-89
2021/03/28 05:27:10;;;;;;;4.37;2.00;;;3.30;99.90;;;;;;5075528;28;20547;-88
2021/03/28 05:30:16;;;;;;;5.47;1.73;;;3.20;99.90;;;;;;5028244;28;20449;-85
2021/03/28 05:33:20;;;;;;;5.60;1.63;;;3.20;99.90;;;;;;5041594;28;20535;-90
2021/03/28 05:36:25;;;;;;;3.23;1.80;;;3.10;99.90;;;;;;5034389;28;20819;-85
2021/03/28 05:39:33;;;;;;;4.53;1.60;;;3.10;99.90;;;;;;5075202;28;20472;-83
2021/03/28 05:42:35;;;;;;;5.83;2.17;;;3.10;99.90;;;;;;5075195;28;20460;-86
2021/03/28 05:45:20;;;;;;;3.50;1.77;;;3.20;99.90;;;;;;5061191;28;20475;-92
2021/03/28 05:48:18;;;;;;;5.20;2.20;;;3.30;99.90;;;;;;5074992;28;20511;-83
2021/03/28 05:50:57;;;;;;;3.90;1.80;;;3.30;99.90;;;;;;5047166;28;20459;-87
2021/03/28 05:53:55;;;;;;;4.80;2.07;;;3.40;99.90;;;;;;5074846;28;20492;-89
2021/03/28 05:56:57;;;;;;;7.37;1.50;;;3.50;99.90;;;;;;5074683;28;20452;-83
2021/03/28 05:59:58;;;;;;;6.17;2.23;;;4.00;99.90;;;;;;5073869;28;20477;-90
2021/03/28 06:02:47;;;;;;;7.53;2.57;;;4.30;99.90;;;;;;5070740;28;20440;-87
2021/03/28 06:05:59;;;;;;;4.67;1.90;;;4.40;99.90;;;;;;5072196;28;20936;-94
2021/03/28 06:09:03;;;;;;;4.90;1.53;;;5.10;99.90;;;;;;5074941;28;20442;-83
2021/03/28 06:12:03;;;;;;;3.47;1.17;;;4.80;99.90;;;;;;5075009;28;20449;-83
2021/03/28 06:14:47;;;;;;;5.27;1.40;;;5.10;99.90;;;;;;5067363;28;20480;-89
2021/03/28 06:17:36;;;;;;;4.13;1.67;;;5.20;99.90;;;;;;5071769;28;20449;-86
2021/03/28 06:20:41;;;;;;;6.63;2.03;;;5.40;99.90;;;;;;5074834;28;20949;-87
2021/03/28 06:23:58;;;;;;;5.40;1.73;;;5.70;99.90;;;;;;5074656;28;20448;-85
2021/03/28 06:26:55;;;;;;;3.13;0.90;;;5.90;99.90;;;;;;5074725;28;20457;-90
2021/03/28 06:30:00;;;;;;;5.27;1.70;;;6.20;99.90;;;;;;5073437;28;20450;-86
2021/03/28 06:33:05;;;;;;;14.77;1.77;;;6.50;99.90;;;;;;5074010;28;20948;-83
2021/03/28 06:36:12;;;;;;;5.53;1.80;;;6.60;99.90;;;;;;5078443;28;20477;-85
2021/03/28 06:39:21;;;;;;;6.23;1.40;;;6.80;99.90;;;;;;5075281;28;20445;-87
2021/03/28 06:42:28;;;;;;;4.60;1.40;;;7.00;99.90;;;;;;5074178;28;20470;-83
2021/03/28 06:45:31;;;;;;;4.37;1.63;;;6.80;99.90;;;;;;5073255;28;20827;-83
2021/03/28 06:48:24;;;;;;;2.93;1.60;;;6.70;99.90;;;;;;5074102;28;20449;-86
2021/03/28 06:51:23;;;;;;;3.70;1.77;;;6.70;99.90;;;;;;5073784;28;20450;-83
2021/03/28 06:54:41;;;;;;;3.50;1.53;;;6.90;99.90;;;;;;5073781;28;20511;-83
2021/03/28 06:57:44;;;;;;;4.43;1.53;;;6.80;99.90;;;;;;5074655;28;20821;-86
2021/03/28 07:00:40;;;;;;;4.53;1.13;;;6.90;99.90;;;;;;5053247;28;20477;-84
2021/03/28 07:03:35;;;;;;;5.77;2.10;;;6.80;99.90;;;;;;5074578;28;20450;-87
2021/03/28 07:06:11;;;;;;;6.20;1.20;;;6.70;99.90;;;;;;5073619;28;20956;-83
2021/03/28 07:09:15;;;;;;;2.33;1.60;;;6.80;99.90;;;;;;5073358;28;20461;-83
2021/03/28 07:11:57;;;;;;;2.80;1.43;;;7.20;99.90;;;;;;5044148;28;20514;-83
2021/03/28 07:15:08;;;;;;;2.77;1.00;;;7.10;99.90;;;;;;5073844;28;20453;-83
2021/03/28 07:18:26;;;;;;;2.60;1.40;;;7.30;99.90;;;;;;5044345;28;20952;-83
2021/03/28 07:21:03;;;;;;;3.60;1.50;;;7.30;99.90;;;;;;4983815;28;20445;-83
2021/03/28 07:23:57;;;;;;;1.80;1.13;;;7.70;99.90;;;;;;4977737;28;20453;-83
2021/03/28 07:26:55;;;;;;;5.97;1.67;;;7.60;99.90;;;;;;4971448;28;20442;-83
2021/03/28 07:30:03;;;;;;;2.57;1.80;;;7.50;99.90;;;;;;4969570;28;20473;-87
2021/03/28 07:33:16;;;;;;;4.57;1.70;;;7.50;99.90;;;;;;4972158;28;20582;-85
2021/03/28 07:36:20;;;;;;;5.27;1.83;;;7.70;99.90;;;;;;4973751;28;20854;-84
2021/03/28 07:39:22;;;;;;;6.60;1.60;;;7.90;99.90;;;;;;4972119;28;20793;-84
2021/03/28 07:42:30;;;;;;;2.53;1.47;;;8.30;99.70;;;;;;4974939;28;20453;-91
2021/03/28 07:45:35;;;;;;;4.73;1.60;;;8.50;99.10;;;;;;4970115;28;20462;-85
2021/03/28 07:48:26;;;;;;;3.53;1.87;;;8.60;99.30;;;;;;4977867;28;20446;-85
2021/03/28 07:51:27;;;;;;;3.80;1.57;;;8.90;98.50;;;;;;4974479;28;20450;-84
2021/03/28 07:54:31;;;;;;;2.20;1.17;;;9.20;98.20;;;;;;4981440;28;20450;-87
2021/03/28 07:57:32;;;;;;;3.57;1.43;;;9.30;98.00;;;;;;4982349;28;20449;-84
2021/03/28 08:00:17;;;;;;;6.47;1.77;;;9.70;97.20;;;;;;4990438;28;20477;-86
2021/03/28 08:03:06;;;;;;;4.80;1.50;;;9.90;97.40;;;;;;4990025;28;20454;-85
2021/03/28 08:05:53;;;;;;;8.70;1.53;;;9.70;96.80;;;;;;4969806;28;20932;-91
2021/03/28 08:08:36;;;;;;;1.10;0.60;;;9.50;97.20;;;;;;4976508;28;20450;-88
2021/03/28 08:11:19;;;;;;;3.93;1.53;;;9.20;99.90;;;;;;4977286;28;20457;-84
2021/03/28 08:14:17;;;;;;;4.83;1.30;;;9.10;97.00;;;;;;4972820;28;20489;-84
2021/03/28 08:17:04;;;;;;;0.97;0.73;;;9.50;97.20;;;;;;4987573;28;20450;-84
2021/03/28 08:19:47;;;;;;;2.17;1.30;;;9.20;96.80;;;;;;4975450;28;20446;-84
2021/03/28 08:22:23;;;;;;;6.43;1.43;;;9.10;97.50;;;;;;4975123;28;20446;-85
2021/03/28 08:25:14;;;;;;;5.37;1.23;;;9.20;97.00;;;;;;4985177;28;20449;-85
2021/03/28 08:28:01;;;;;;;3.57;1.60;;;9.30;96.90;;;;;;5018688;22;20977;-84
2021/03/28 08:30:48;;;;;;;1.60;1.50;;;9.40;96.80;;;;;;5020932;28;20454;-84
2021/03/28 08:33:39;;;;;;;3.33;1.57;;;9.50;96.60;;;;;;4972755;28;20977;-85
2021/03/28 08:36:49;;;;;;;4.43;2.07;;;9.80;96.00;;;;;;4965637;28;20449;-84
2021/03/28 08:40:01;;;;;;;5.23;0.90;;;10.50;95.30;;;;;;4971202;28;20909;-84
2021/03/28 08:43:06;;;;;;;2.50;1.37;;;10.60;94.70;;;;;;5025107;23;20485;-85
2021/03/28 08:45:34;;;;;;;3.07;1.13;;;10.80;93.60;;;;;;5067861;28;20504;-84
2021/03/28 08:48:32;;;;;;;5.00;1.50;;;11.20;99.90;;;;;;5070637;28;20446;-86
2021/03/28 08:51:15;;;;;;;8.63;2.37;;;12.10;99.90;;;;;;5070063;28;20446;-85
2021/03/28 08:53:58;;;;;;;5.63;1.63;;;12.20;92.00;;;;;;5067025;28;20486;-89
2021/03/28 08:57:13;;;;;;;1.70;1.13;;;11.20;92.60;;;;;;5058076;28;20500;-93
2021/03/28 09:00:04;;;;;;;2.83;1.00;;;12.20;99.90;;;;;;4999330;28;20449;-87
2021/03/28 09:02:55;;;;;;;3.00;0.93;;;11.80;97.60;;;;;;5055976;28;20435;-89
2021/03/28 09:05:33;;;;;;;4.53;1.40;;;12.40;99.90;;;;;;5068544;28;20453;-85
2021/03/28 09:08:09;;;;;;;5.60;1.67;;;12.70;89.80;;;;;;5059039;28;20438;-84
2021/03/28 09:11:21;;;;;;;7.20;1.50;;;12.90;98.90;;;;;;5061197;28;20450;-86
2021/03/28 09:13:52;;;;;;;6.50;1.40;;;13.10;88.60;;;;;;5062705;28;20523;-87
2021/03/28 09:16:31;;;;;;;3.20;1.23;;;13.20;95.80;;;;;;5060563;28;20943;-86
2021/03/28 09:19:15;;;;;;;4.47;1.33;;;13.20;95.40;;;;;;5055935;28;20446;-94
2021/03/28 09:21:59;;;;;;;3.57;1.17;;;13.10;82.00;;;;;;5057967;28;20454;-89
2021/03/28 09:24:38;;;;;;;3.70;1.37;;;13.90;95.90;;;;;;5060266;28;20508;-86
2021/03/28 09:27:33;;;;;;;1.97;0.80;;;14.60;86.80;;;;;;5062897;28;20446;-88
2021/03/28 09:30:18;;;;;;;1.90;1.03;;;13.90;91.70;;;;;;5053240;28;20973;-90
2021/03/28 09:33:00;;;;;;;7.40;1.30;;;13.10;92.40;;;;;;5060031;28;20829;-86
2021/03/28 09:36:04;;;;;;;2.67;1.43;;;13.00;94.00;;;;;;5057795;28;20447;-92
2021/03/28 09:39:01;;;;;;;3.80;1.60;;;13.80;95.60;;;;;;5056931;28;20507;-85
2021/03/28 09:42:01;;;;;;;2.93;1.10;;;13.40;92.10;;;;;;5055207;28;20451;-84
2021/03/28 09:44:37;;;;;;;3.43;1.27;;;13.20;71.10;;;;;;5054973;28;20450;-85
2021/03/28 09:47:12;;;;;;;4.60;1.20;;;13.30;72.30;;;;;;5053775;28;20442;-84
2021/03/28 09:49:53;;;;;;;3.67;1.63;;;13.30;74.20;;;;;;5055053;28;20446;-85
2021/03/28 09:52:41;;;;;;;1.87;1.00;;;14.80;72.40;;;;;;5059246;28;20482;-86
2021/03/28 09:55:35;;;;;;;2.40;1.60;;;13.90;76.50;;;;;;5060783;28;20446;-96
2021/03/28 09:58:37;;;;;;;4.03;1.20;;;14.00;68.40;;;;;;5077399;28;20445;-90
2021/03/28 10:01:42;;;;;;;3.83;1.57;;;14.80;70.00;;;;;;5075139;28;20568;-89
2021/03/28 10:04:25;;;;;;;2.37;1.20;;;14.90;68.50;;;;;;5069381;28;20978;-87
2021/03/28 10:06:58;;;;;;;1.77;0.90;;;15.70;68.30;;;;;;5080804;28;20450;-87
2021/03/28 10:09:42;;;;;;;3.40;1.83;;;16.00;65.10;;;;;;5078219;28;20450;-88
2021/03/28 10:12:17;;;;;;;4.30;1.40;;;16.80;72.20;;;;;;5085102;28;20481;-87
2021/03/28 10:14:59;;;;;;;7.87;1.50;;;16.80;64.00;;;;;;5088893;28;20855;-86
2021/03/28 10:17:39;;;;;;;7.27;1.40;;;16.10;62.80;;;;;;5075835;28;20430;-92
2021/03/28 10:20:19;;;;;;;3.47;1.90;;;14.10;66.70;;;;;;5078331;28;20587;-85
2021/03/28 10:22:58;;;;;;;2.13;1.00;;;15.00;66.90;;;;;;5081555;28;20449;-89
2021/03/28 10:25:33;;;;;;;1.23;0.93;;;14.20;66.10;;;;;;5074085;28;20433;-85
2021/03/28 10:28:34;;;;;;;1.77;1.10;;;13.40;66.10;;;;;;5075951;28;20880;-87
2021/03/28 10:31:41;;;;;;;3.20;1.33;;;13.50;67.10;;;;;;5078369;28;20444;-87
2021/03/28 10:34:30;;;;;;;4.60;1.60;;;14.50;66.40;;;;;;4997987;28;20429;-88
2021/03/28 10:37:16;;;;;;;3.13;1.13;;;14.50;66.10;;;;;;5081804;28;20449;-91
2021/03/28 10:40:07;;;;;;;2.67;1.00;;;14.90;67.20;;;;;;4990103;22;20558;-86
2021/03/28 10:42:43;;;;;;;3.70;1.27;;;15.40;64.70;;;;;;4978515;28;20450;-86
2021/03/28 10:45:31;;;;;;;4.77;1.00;;;14.60;64.90;;;;;;4978237;28;20446;-90
2021/03/28 10:48:39;;;;;;;5.37;1.67;;;15.20;63.40;;;;;;4989798;28;20454;-92
2021/03/28 10:51:59;;;;;;;5.57;1.70;;;15.50;62.40;;;;;;4948754;28;20451;-87
2021/03/28 10:55:21;;;;;;;3.60;1.37;;;14.60;82.30;;;;;;4944424;28;20512;-90
2021/03/28 10:58:26;;;;;;;4.77;1.60;;;14.50;65.10;;;;;;4953957;28;20451;-93
2021/03/28 11:01:30;;;;;;;2.40;1.30;;;13.50;66.80;;;;;;4951209;29;20466;-87
2021/03/28 11:04:45;;;;;;;5.23;1.27;;;14.10;68.70;;;;;;4957126;29;20455;-86
2021/03/28 11:07:49;;;;;;;2.20;1.30;;;15.40;67.70;;;;;;4955483;29;20447;-92
2021/03/28 11:10:52;;;;;;;2.00;1.20;;;13.50;85.90;;;;;;4955493;29;20516;-87
2021/03/28 11:13:36;;;;;;;5.33;1.70;;;14.00;68.80;;;;;;4954963;28;21012;-88
2021/03/28 11:16:16;;;;;;;1.00;0.67;;;13.80;68.80;;;;;;4959205;29;20447;-85
2021/03/28 11:19:32;;;;;;;3.37;1.70;;;13.80;69.10;;;;;;4957264;29;20810;-91
2021/03/28 11:22:11;;;;;;;5.00;1.47;;;13.30;69.60;;;;;;4960598;28;20436;-92
2021/03/28 11:24:54;;;;;;;3.90;2.13;;;13.90;69.20;;;;;;4954127;29;20954;-92
2021/03/28 11:27:53;;;;;;;6.60;2.47;;;14.50;70.90;;;;;;4958499;29;20451;-89
2021/03/28 11:30:35;;;;;;;3.50;1.50;;;14.80;68.90;;;;;;4958646;29;20459;-88
2021/03/28 11:33:29;;;;;;;4.80;1.70;;;15.10;69.60;;;;;;4963339;29;20495;-91
2021/03/28 11:36:22;;;;;;;2.73;1.20;;;15.50;69.20;;;;;;4959811;28;20447;-89
2021/03/28 11:39:20;;;;;;;3.80;1.40;;;15.00;67.60;;;;;;4964494;29;20463;-89
2021/03/28 11:42:01;;;;;;;5.67;2.00;;;14.80;68.40;;;;;;4967422;29;20469;-93
2021/03/28 11:44:40;;;;;;;2.37;1.17;;;14.60;67.90;;;;;;4964660;29;20501;-91
2021/03/28 11:47:28;;;;;;;5.00;1.60;;;14.10;68.30;;;;;;4962590;28;20465;-86
2021/03/28 11:50:07;;;;;;;2.33;1.20;;;14.60;65.30;;;;;;4998651;22;20481;-87
2021/03/28 11:52:59;;;;;;;1.77;1.00;;;14.30;65.50;;;;;;5062808;28;20497;-94
2021/03/28 11:55:54;;;;;;;2.43;1.20;;;14.30;67.20;;;;;;5062336;28;20450;-90
2021/03/28 11:58:54;;;;;;;4.70;1.80;;;14.70;68.70;;;;;;5083631;22;20491;-92
2021/03/28 12:01:59;;;;;;;7.10;2.80;;;14.60;65.30;;;;;;5102921;28;20436;-92
2021/03/28 12:04:28;;;;;;;3.13;1.10;;;14.40;82.70;;;;;;5092922;28;20455;-88
2021/03/28 12:06:58;;;;;;;2.83;1.30;;;14.40;64.40;;;;;;5102320;28;20490;-88
2021/03/28 12:09:28;;;;;;;4.37;1.47;;;14.20;66.10;;;;;;5102931;28;20915;-91
2021/03/28 12:12:00;;;;;;;3.30;1.60;;;14.80;66.40;;;;;;5091349;22;21002;-90
2021/03/28 12:14:34;;;;;;;3.67;2.00;;;14.40;65.80;;;;;;5079955;28;20441;-91
2021/03/28 12:17:28;;;;;;;4.70;1.90;;;15.10;65.60;;;;;;5076253;28;20873;-88
2021/03/28 12:20:01;;;;;;;5.43;1.50;;;14.90;66.40;;;;;;5088493;22;20477;-88
2021/03/28 12:22:31;;;;;;;2.97;1.53;;;15.20;65.10;;;;;;5079489;28;20449;-87
2021/03/28 12:25:04;;;;;;;1.87;1.13;;;15.50;64.40;;;;;;5084071;28;20446;-87
2021/03/28 12:27:39;;;;;;;4.03;1.50;;;15.20;71.70;;;;;;5086585;28;20449;-85
2021/03/28 12:30:31;;;;;;;3.83;1.60;;;15.10;64.00;;;;;;5079979;28;20448;-86
2021/03/28 12:33:02;;;;;;;3.90;1.70;;;15.80;65.00;;;;;;5081515;28;20546;-87
2021/03/28 12:35:50;;;;;;;2.00;1.47;;;15.70;61.90;;;;;;5079270;28;20437;-88
2021/03/28 12:38:33;;;;;;;2.63;1.10;;;14.70;64.30;;;;;;5077678;28;20457;-87
2021/03/28 12:41:15;;;;;;;2.60;1.53;;;15.00;64.10;;;;;;5081137;28;20453;-87
2021/03/28 12:43:44;;;;;;;3.70;1.60;;;15.70;64.90;;;;;;5073587;28;20453;-93
2021/03/28 12:46:52;;;;;;;1.80;1.40;;;15.30;63.50;;;;;;5075981;28;20449;-91
2021/03/28 12:49:23;;;;;;;2.70;1.30;;;15.80;64.00;;;;;;5078655;28;20465;-89
2021/03/28 12:52:00;;;;;;;4.63;1.37;;;16.40;64.40;;;;;;5078160;28;20530;-88
2021/03/28 12:54:30;;;;;;;3.70;1.50;;;16.20;63.30;;;;;;5077751;28;20457;-88
2021/03/28 12:57:01;;;;;;;2.70;0.80;;;16.70;64.00;;;;;;5077400;28;20449;-93
2021/03/28 12:59:34;;;;;;;3.17;1.50;;;16.60;61.20;;;;;;5073408;28;20492;-87
2021/03/28 13:02:20;;;;;;;4.00;1.73;;;16.30;62.30;;;;;;5074312;28;20446;-91
2021/03/28 13:04:53;;;;;;;4.93;1.87;;;15.60;64.20;;;;;;5076377;28;21017;-89
2021/03/28 13:07:39;;;;;;;2.80;1.50;;;15.20;64.90;;;;;;5077660;28;20828;-87
2021/03/28 13:10:14;;;;;;;1.87;1.40;;;16.00;64.30;;;;;;5075532;28;20445;-86
2021/03/28 13:12:42;;;;;;;6.27;1.27;;;16.10;63.20;;;;;;5076016;28;20481;-85
2021/03/28 13:15:23;;;;;;;3.80;1.60;;;15.70;62.80;;;;;;5073679;28;20449;-86
2021/03/28 13:18:12;;;;;;;3.27;1.50;;;16.40;62.80;;;;;;5077984;28;20441;-88
2021/03/28 13:20:41;;;;;;;2.03;0.83;;;16.50;63.60;;;;;;5079283;28;20481;-89
2021/03/28 13:23:35;;;;;;;5.17;1.50;;;17.00;61.90;;;;;;5076140;28;20449;-93
2021/03/28 13:26:14;;;;;;;4.70;1.77;;;16.00;61.90;;;;;;5066837;28;20449;-90
2021/03/28 13:28:43;;;;;;;1.93;1.10;;;16.50;61.90;;;;;;5079626;28;20450;-86
2021/03/28 13:31:31;;;;;;;5.23;1.67;;;16.90;61.20;;;;;;5081560;28;20514;-93
2021/03/28 13:34:04;;;;;;;3.47;1.60;;;17.20;60.10;;;;;;5076525;28;20496;-91
2021/03/28 13:36:35;;;;;;;3.03;1.50;;;16.90;60.60;;;;;;5076006;28;20450;-89
2021/03/28 13:39:20;;;;;;;2.70;1.47;;;16.30;61.10;;;;;;5075877;28;20507;-90
2021/03/28 13:42:01;;;;;;;2.00;1.10;;;16.10;61.70;;;;;;5070771;28;20844;-91
2021/03/28 13:44:31;;;;;;;7.20;0.83;;;17.00;60.50;;;;;;5074603;28;21115;-88
2021/03/28 13:47:01;;;;;;;2.20;1.37;;;16.00;59.90;;;;;;5077564;28;20449;-93
2021/03/28 13:49:39;;;;;;;3.40;1.20;;;16.10;60.80;;;;;;5078304;28;20523;-93
2021/03/28 13:52:14;;;;;;;1.17;0.80;;;16.30;60.80;;;;;;5073477;28;20445;-89
2021/03/28 13:54:42;;;;;;;3.00;1.40;;;15.90;60.90;;;;;;5074970;28;20442;-88
2021/03/28 13:57:14;;;;;;;4.13;1.53;;;16.60;61.60;;;;;;5075450;28;20929;-85
2021/03/28 13:59:59;;;;;;;2.20;1.13;;;16.30;59.90;;;;;;5076588;28;20449;-85
2021/03/28 14:02:27;;;;;;;1.50;1.20;;;16.80;60.10;;;;;;5079378;28;20507;-88
2021/03/28 14:04:59;;;;;;;2.50;1.33;;;17.20;59.60;;;;;;5079746;28;20843;-88
2021/03/28 14:07:33;;;;;;;1.90;0.83;;;17.50;59.00;;;;;;5071224;28;20794;-85
2021/03/28 14:10:26;;;;;;;2.03;1.20;;;16.80;58.40;;;;;;5077370;28;20441;-88
2021/03/28 14:12:56;;;;;;;2.50;1.50;;;17.20;58.80;;;;;;5080880;28;20477;-89
2021/03/28 14:15:42;;;;;;;1.73;1.40;;;17.40;58.40;;;;;;5076583;28;20442;-89
2021/03/28 14:18:30;;;;;;;4.83;1.53;;;17.30;59.40;;;;;;5080063;28;20467;-90
2021/03/28 14:21:25;;;;;;;4.00;1.63;;;17.30;59.00;;;;;;5078640;28;20473;-85
2021/03/28 14:24:01;;;;;;;3.47;2.00;;;17.10;58.90;;;;;;5028728;28;20773;-87
2021/03/28 14:26:40;;;;;;;1.73;1.00;;;17.80;58.20;;;;;;5074400;28;20456;-83
2021/03/28 14:29:24;;;;;;;3.03;1.17;;;16.40;74.00;;;;;;5072466;28;20445;-88
2021/03/28 14:31:57;;;;;;;3.90;1.43;;;16.60;58.80;;;;;;5072592;28;20518;-88
2021/03/28 14:34:59;;;;;;;7.83;1.33;;;17.40;59.20;;;;;;5071231;28;20485;-88
2021/03/28 14:38:07;;;;;;;2.83;1.43;;;16.70;58.60;;;;;;5069567;28;20456;-86